This is the latest recevied weather packets stored in our database for station/object 9M4GEK-3. If no packets are shown the sender has not sent any weather packets the latest 10 day(s).
| Time | Temp. | Humidity | Pressure | Rain* | Wind** | Luminosity | Snow |
|---|---|---|---|---|---|---|---|
| 1777624837 | 34.44° C | 47% | 1005.8 hPa | - | - | - | - |
| 1777623936 | 35.56° C | 45% | 1005.4 hPa | - | - | - | - |
| 1777623113 | 36.67° C | 42% | 1005.2 hPa | - | - | - | - |
| 1777623036 | 36.67° C | 42% | 1005.2 hPa | - | - | - | - |
| 1777622202 | 40.56° C | 37% | 1005.1 hPa | - | - | - | - |
| 1777622136 | 40.56° C | 37% | 1005.1 hPa | - | - | - | - |
| 1777621236 | 40.56° C | 38% | 1005.3 hPa | - | - | - | - |
| 1777620336 | 39.44° C | 38% | 1005.3 hPa | - | - | - | - |
| 1777619436 | 41.67° C | 36% | 1005.5 hPa | - | - | - | - |
| 1777618535 | 37.22° C | 42% | 1006 hPa | - | - | - | - |
| 1777617728 | 38.89° C | 36% | 1006.4 hPa | - | - | - | - |
| 1777617635 | 38.89° C | 36% | 1006.4 hPa | - | - | - | - |
| 1777616735 | 42.78° C | 32% | 1006.6 hPa | - | - | - | - |
| 1777615835 | 45° C | 31% | 1006.9 hPa | - | - | - | - |
| 1777615094 | 45° C | 30% | 1007.4 hPa | - | - | - | - |
| 1777614934 | 45° C | 30% | 1007.4 hPa | - | - | - | - |
| 1777614034 | 45.56° C | 29% | 1007.5 hPa | - | - | - | - |
| 1777613134 | 42.78° C | 34% | 1008 hPa | - | - | - | - |
| 1777612233 | 45.56° C | 31% | 1008.6 hPa | - | - | - | - |
| 1777611386 | 44.44° C | 32% | 1009.1 hPa | - | - | - | - |
| 1777611334 | 44.44° C | 32% | 1009.1 hPa | - | - | - | - |
| 1777610434 | 40.56° C | 36% | 1009.3 hPa | - | - | - | - |
| 1777609754 | 40.56° C | 37% | 1009.4 hPa | - | - | - | - |
| 1777609534 | 40.56° C | 37% | 1009.4 hPa | - | - | - | - |
| 1777608633 | 42.78° C | 35% | 1009.5 hPa | - | - | - | - |
* Rain since midnight (hover to see other rain measurements)
** Current wind speed in m/s (hover to see current wind gust speed)